sensor_id;sensor_type;location;lat;lon;timestamp;temperature;humidity
18721;DHT22;9489;50.948;3.114;2023-02-15T00:02:16;4.80;99.90
18721;DHT22;9489;50.948;3.114;2023-02-15T00:04:42;4.90;99.90
18721;DHT22;9489;50.948;3.114;2023-02-15T00:07:18;4.90;99.90
18721;DHT22;9489;50.948;3.114;2023-02-15T00:09:47;4.80;99.90
18721;DHT22;9489;50.948;3.114;2023-02-15T00:12:14;4.90;99.90
18721;DHT22;9489;50.948;3.114;2023-02-15T00:14:40;4.80;99.90
18721;DHT22;9489;50.948;3.114;2023-02-15T00:17:05;4.80;99.90
18721;DHT22;9489;50.948;3.114;2023-02-15T00:19:31;4.70;99.90
18721;DHT22;9489;50.948;3.114;2023-02-15T00:21:57;4.80;99.90
18721;DHT22;9489;50.948;3.114;2023-02-15T00:24:22;4.90;99.90
18721;DHT22;9489;50.948;3.114;2023-02-15T00:26:48;5.10;99.90
18721;DHT22;9489;50.948;3.114;2023-02-15T00:29:15;5.20;99.90
18721;DHT22;9489;50.948;3.114;2023-02-15T00:31:42;5.30;99.90
18721;DHT22;9489;50.948;3.114;2023-02-15T00:34:10;5.50;99.90
18721;DHT22;9489;50.948;3.114;2023-02-15T00:36:37;5.50;99.90
18721;DHT22;9489;50.948;3.114;2023-02-15T00:39:03;5.60;99.90
18721;DHT22;9489;50.948;3.114;2023-02-15T00:41:33;5.60;99.90
18721;DHT22;9489;50.948;3.114;2023-02-15T00:43:59;5.60;99.90
18721;DHT22;9489;50.948;3.114;2023-02-15T00:46:25;5.30;99.90
18721;DHT22;9489;50.948;3.114;2023-02-15T00:48:50;5.20;99.90
18721;DHT22;9489;50.948;3.114;2023-02-15T00:51:16;5.20;99.90
18721;DHT22;9489;50.948;3.114;2023-02-15T00:53:46;5.10;99.90
18721;DHT22;9489;50.948;3.114;2023-02-15T00:56:12;4.80;99.90
18721;DHT22;9489;50.948;3.114;2023-02-15T00:58:37;4.60;99.90
18721;DHT22;9489;50.948;3.114;2023-02-15T01:01:05;4.70;99.90
18721;DHT22;9489;50.948;3.114;2023-02-15T01:03:31;4.70;99.90
18721;DHT22;9489;50.948;3.114;2023-02-15T01:05:57;4.70;99.90
18721;DHT22;9489;50.948;3.114;2023-02-15T01:08:22;4.50;99.90
18721;DHT22;9489;50.948;3.114;2023-02-15T01:10:48;4.50;99.90
18721;DHT22;9489;50.948;3.114;2023-02-15T01:13:16;4.50;99.90
18721;DHT22;9489;50.948;3.114;2023-02-15T01:15:43;4.50;99.90
18721;DHT22;9489;50.948;3.114;2023-02-15T01:18:09;4.40;99.90
18721;DHT22;9489;50.948;3.114;2023-02-15T01:20:37;4.40;99.90
18721;DHT22;9489;50.948;3.114;2023-02-15T01:23:05;4.30;99.90
18721;DHT22;9489;50.948;3.114;2023-02-15T01:25:33;4.30;99.90
18721;DHT22;9489;50.948;3.114;2023-02-15T01:27:59;4.20;99.90
18721;DHT22;9489;50.948;3.114;2023-02-15T01:30:24;4.20;99.90
18721;DHT22;9489;50.948;3.114;2023-02-15T01:32:50;4.20;99.90
18721;DHT22;9489;50.948;3.114;2023-02-15T01:35:15;4.10;99.90
18721;DHT22;9489;50.948;3.114;2023-02-15T01:37:41;4.20;99.90
18721;DHT22;9489;50.948;3.114;2023-02-15T01:40:11;4.10;99.90
18721;DHT22;9489;50.948;3.114;2023-02-15T01:42:38;4.00;99.90
18721;DHT22;9489;50.948;3.114;2023-02-15T01:47:46;4.00;99.90
18721;DHT22;9489;50.948;3.114;2023-02-15T01:50:39;3.90;99.90
18721;DHT22;9489;50.948;3.114;2023-02-15T01:53:31;3.80;99.90
18721;DHT22;9489;50.948;3.114;2023-02-15T01:56:02;3.80;99.90
18721;DHT22;9489;50.948;3.114;2023-02-15T01:58:29;3.90;99.90
18721;DHT22;9489;50.948;3.114;2023-02-15T02:00:58;3.90;99.90
18721;DHT22;9489;50.948;3.114;2023-02-15T02:04:08;3.90;99.90
18721;DHT22;9489;50.948;3.114;2023-02-15T02:06:36;3.90;99.90
18721;DHT22;9489;50.948;3.114;2023-02-15T02:09:03;3.80;99.90
18721;DHT22;9489;50.948;3.114;2023-02-15T02:11:29;3.80;99.90
18721;DHT22;9489;50.948;3.114;2023-02-15T02:13:55;3.70;99.90
18721;DHT22;9489;50.948;3.114;2023-02-15T02:19:32;3.60;99.90
18721;DHT22;9489;50.948;3.114;2023-02-15T02:41:25;3.60;99.90
18721;DHT22;9489;50.948;3.114;2023-02-15T02:46:39;3.60;99.90
18721;DHT22;9489;50.948;3.114;2023-02-15T02:49:07;3.50;99.90
18721;DHT22;9489;50.948;3.114;2023-02-15T02:51:33;3.50;99.90
18721;DHT22;9489;50.948;3.114;2023-02-15T02:54:01;3.50;99.90
18721;DHT22;9489;50.948;3.114;2023-02-15T02:56:32;3.50;99.90
18721;DHT22;9489;50.948;3.114;2023-02-15T03:01:28;3.40;99.90
18721;DHT22;9489;50.948;3.114;2023-02-15T03:04:07;3.40;99.90
18721;DHT22;9489;50.948;3.114;2023-02-15T03:06:43;3.30;99.90
18721;DHT22;9489;50.948;3.114;2023-02-15T03:09:42;3.30;99.90
18721;DHT22;9489;50.948;3.114;2023-02-15T03:17:41;3.30;99.90
18721;DHT22;9489;50.948;3.114;2023-02-15T03:20:18;3.30;99.90
18721;DHT22;9489;50.948;3.114;2023-02-15T03:22:55;3.30;99.90
18721;DHT22;9489;50.948;3.114;2023-02-15T03:25:25;3.30;99.90
18721;DHT22;9489;50.948;3.114;2023-02-15T03:27:55;3.30;99.90
18721;DHT22;9489;50.948;3.114;2023-02-15T03:30:25;3.20;99.90
18721;DHT22;9489;50.948;3.114;2023-02-15T03:32:54;3.20;99.90
18721;DHT22;9489;50.948;3.114;2023-02-15T03:35:24;3.20;99.90
18721;DHT22;9489;50.948;3.114;2023-02-15T03:37:59;3.30;99.90
18721;DHT22;9489;50.948;3.114;2023-02-15T03:40:32;3.40;99.90
18721;DHT22;9489;50.948;3.114;2023-02-15T03:43:33;3.60;99.90
18721;DHT22;9489;50.948;3.114;2023-02-15T03:46:12;3.80;99.90
18721;DHT22;9489;50.948;3.114;2023-02-15T03:48:43;3.80;99.90
18721;DHT22;9489;50.948;3.114;2023-02-15T03:51:14;4.00;99.90
18721;DHT22;9489;50.948;3.114;2023-02-15T03:54:29;4.10;99.90
18721;DHT22;9489;50.948;3.114;2023-02-15T03:57:11;4.20;99.90
18721;DHT22;9489;50.948;3.114;2023-02-15T03:59:57;4.20;99.90
18721;DHT22;9489;50.948;3.114;2023-02-15T04:02:59;4.20;99.90
18721;DHT22;9489;50.948;3.114;2023-02-15T04:05:29;4.20;99.90
18721;DHT22;9489;50.948;3.114;2023-02-15T04:07:54;4.20;99.90
18721;DHT22;9489;50.948;3.114;2023-02-15T04:10:20;4.20;99.90
18721;DHT22;9489;50.948;3.114;2023-02-15T04:13:04;4.20;99.90
18721;DHT22;9489;50.948;3.114;2023-02-15T04:15:30;4.20;99.90
18721;DHT22;9489;50.948;3.114;2023-02-15T04:18:14;4.20;99.90
18721;DHT22;9489;50.948;3.114;2023-02-15T04:20:46;4.20;99.90
18721;DHT22;9489;50.948;3.114;2023-02-15T04:23:30;4.20;99.90
18721;DHT22;9489;50.948;3.114;2023-02-15T04:26:15;4.20;99.90
18721;DHT22;9489;50.948;3.114;2023-02-15T04:28:40;4.30;99.90
18721;DHT22;9489;50.948;3.114;2023-02-15T04:31:06;4.30;99.90
18721;DHT22;9489;50.948;3.114;2023-02-15T04:33:32;4.20;99.90
18721;DHT22;9489;50.948;3.114;2023-02-15T04:35:57;4.20;99.90
18721;DHT22;9489;50.948;3.114;2023-02-15T04:38:23;4.20;99.90
18721;DHT22;9489;50.948;3.114;2023-02-15T04:40:52;4.30;99.90
18721;DHT22;9489;50.948;3.114;2023-02-15T04:43:18;4.30;99.90
18721;DHT22;9489;50.948;3.114;2023-02-15T04:45:51;4.20;99.90
18721;DHT22;9489;50.948;3.114;2023-02-15T04:48:17;4.30;99.90
18721;DHT22;9489;50.948;3.114;2023-02-15T04:50:43;4.20;99.90
18721;DHT22;9489;50.948;3.114;2023-02-15T04:53:10;4.20;99.90
18721;DHT22;9489;50.948;3.114;2023-02-15T04:55:36;4.30;99.90
18721;DHT22;9489;50.948;3.114;2023-02-15T04:58:02;4.30;99.90
18721;DHT22;9489;50.948;3.114;2023-02-15T05:00:28;4.30;99.90
18721;DHT22;9489;50.948;3.114;2023-02-15T05:02:53;4.30;99.90
18721;DHT22;9489;50.948;3.114;2023-02-15T05:05:19;4.20;99.90
18721;DHT22;9489;50.948;3.114;2023-02-15T05:07:50;4.20;99.90
18721;DHT22;9489;50.948;3.114;2023-02-15T05:10:16;4.30;99.90
18721;DHT22;9489;50.948;3.114;2023-02-15T05:12:45;4.20;99.90
18721;DHT22;9489;50.948;3.114;2023-02-15T05:15:14;4.20;99.90
18721;DHT22;9489;50.948;3.114;2023-02-15T05:17:39;4.20;99.90
18721;DHT22;9489;50.948;3.114;2023-02-15T05:20:06;4.20;99.90
18721;DHT22;9489;50.948;3.114;2023-02-15T05:22:31;4.20;99.90
18721;DHT22;9489;50.948;3.114;2023-02-15T05:24:57;4.10;99.90
18721;DHT22;9489;50.948;3.114;2023-02-15T05:27:42;4.00;99.90
18721;DHT22;9489;50.948;3.114;2023-02-15T05:30:26;4.00;99.90
18721;DHT22;9489;50.948;3.114;2023-02-15T05:32:51;4.00;99.90
18721;DHT22;9489;50.948;3.114;2023-02-15T05:35:17;4.00;99.90
18721;DHT22;9489;50.948;3.114;2023-02-15T05:37:43;3.90;99.90
18721;DHT22;9489;50.948;3.114;2023-02-15T05:40:09;3.90;99.90
18721;DHT22;9489;50.948;3.114;2023-02-15T05:42:35;3.80;99.90
18721;DHT22;9489;50.948;3.114;2023-02-15T05:45:01;3.80;99.90
18721;DHT22;9489;50.948;3.114;2023-02-15T05:47:26;3.80;99.90
18721;DHT22;9489;50.948;3.114;2023-02-15T05:49:52;3.80;99.90
18721;DHT22;9489;50.948;3.114;2023-02-15T05:52:17;3.80;99.90
18721;DHT22;9489;50.948;3.114;2023-02-15T05:54:43;3.70;99.90
18721;DHT22;9489;50.948;3.114;2023-02-15T05:57:09;3.70;99.90
18721;DHT22;9489;50.948;3.114;2023-02-15T05:59:34;3.60;99.90
18721;DHT22;9489;50.948;3.114;2023-02-15T06:02:00;3.60;99.90
18721;DHT22;9489;50.948;3.114;2023-02-15T06:04:25;3.60;99.90
18721;DHT22;9489;50.948;3.114;2023-02-15T06:06:51;3.60;99.90
18721;DHT22;9489;50.948;3.114;2023-02-15T06:09:17;3.60;99.90
18721;DHT22;9489;50.948;3.114;2023-02-15T06:11:44;3.60;99.90
18721;DHT22;9489;50.948;3.114;2023-02-15T06:14:10;3.60;99.90
18721;DHT22;9489;50.948;3.114;2023-02-15T06:16:36;3.60;99.90
18721;DHT22;9489;50.948;3.114;2023-02-15T06:19:02;3.60;99.90
18721;DHT22;9489;50.948;3.114;2023-02-15T06:21:29;3.60;99.90
18721;DHT22;9489;50.948;3.114;2023-02-15T06:23:55;3.60;99.90
18721;DHT22;9489;50.948;3.114;2023-02-15T06:26:21;3.60;99.90
18721;DHT22;9489;50.948;3.114;2023-02-15T06:28:46;3.60;99.90
18721;DHT22;9489;50.948;3.114;2023-02-15T06:31:12;3.60;99.90
18721;DHT22;9489;50.948;3.114;2023-02-15T06:33:37;3.60;99.90
18721;DHT22;9489;50.948;3.114;2023-02-15T06:36:04;3.60;99.90
18721;DHT22;9489;50.948;3.114;2023-02-15T06:38:30;3.60;99.90
18721;DHT22;9489;50.948;3.114;2023-02-15T06:40:55;3.60;99.90
18721;DHT22;9489;50.948;3.114;2023-02-15T06:43:21;3.60;99.90
18721;DHT22;9489;50.948;3.114;2023-02-15T06:45:47;3.60;99.90
18721;DHT22;9489;50.948;3.114;2023-02-15T06:48:13;3.60;99.90
18721;DHT22;9489;50.948;3.114;2023-02-15T06:50:39;3.60;99.90
18721;DHT22;9489;50.948;3.114;2023-02-15T06:53:05;3.60;99.90
18721;DHT22;9489;50.948;3.114;2023-02-15T06:55:30;3.70;99.90
18721;DHT22;9489;50.948;3.114;2023-02-15T06:57:56;3.70;99.90
18721;DHT22;9489;50.948;3.114;2023-02-15T07:00:22;3.70;99.90
18721;DHT22;9489;50.948;3.114;2023-02-15T07:02:56;3.70;99.90
18721;DHT22;9489;50.948;3.114;2023-02-15T07:05:23;3.80;99.90
18721;DHT22;9489;50.948;3.114;2023-02-15T07:07:49;3.80;99.90
18721;DHT22;9489;50.948;3.114;2023-02-15T07:10:15;3.80;99.90
18721;DHT22;9489;50.948;3.114;2023-02-15T07:12:41;3.80;99.90
18721;DHT22;9489;50.948;3.114;2023-02-15T07:15:08;3.80;99.90
18721;DHT22;9489;50.948;3.114;2023-02-15T07:17:35;3.80;99.90
18721;DHT22;9489;50.948;3.114;2023-02-15T07:20:03;3.80;99.90
18721;DHT22;9489;50.948;3.114;2023-02-15T07:22:29;3.90;99.90
18721;DHT22;9489;50.948;3.114;2023-02-15T07:24:54;3.90;99.90
18721;DHT22;9489;50.948;3.114;2023-02-15T07:27:20;3.90;99.90
18721;DHT22;9489;50.948;3.114;2023-02-15T07:29:46;4.00;99.90
18721;DHT22;9489;50.948;3.114;2023-02-15T07:32:12;4.00;99.90
18721;DHT22;9489;50.948;3.114;2023-02-15T07:34:37;4.00;99.90
18721;DHT22;9489;50.948;3.114;2023-02-15T07:37:03;4.10;99.90
18721;DHT22;9489;50.948;3.114;2023-02-15T07:39:29;4.10;99.90
18721;DHT22;9489;50.948;3.114;2023-02-15T07:41:55;4.10;99.90
18721;DHT22;9489;50.948;3.114;2023-02-15T07:44:20;4.20;99.90
18721;DHT22;9489;50.948;3.114;2023-02-15T07:46:46;4.30;99.90
18721;DHT22;9489;50.948;3.114;2023-02-15T07:49:12;4.40;99.90
18721;DHT22;9489;50.948;3.114;2023-02-15T07:51:37;4.40;99.90
18721;DHT22;9489;50.948;3.114;2023-02-15T07:54:03;4.60;99.90
18721;DHT22;9489;50.948;3.114;2023-02-15T07:56:29;4.80;99.90
18721;DHT22;9489;50.948;3.114;2023-02-15T07:58:54;5.00;99.90
18721;DHT22;9489;50.948;3.114;2023-02-15T08:01:28;5.30;99.90
18721;DHT22;9489;50.948;3.114;2023-02-15T08:03:54;5.60;99.90
18721;DHT22;9489;50.948;3.114;2023-02-15T08:06:22;5.90;99.90
18721;DHT22;9489;50.948;3.114;2023-02-15T08:08:48;6.10;99.90
18721;DHT22;9489;50.948;3.114;2023-02-15T08:11:28;6.30;99.90
18721;DHT22;9489;50.948;3.114;2023-02-15T08:14:01;6.40;99.90
18721;DHT22;9489;50.948;3.114;2023-02-15T08:16:38;6.40;99.90
18721;DHT22;9489;50.948;3.114;2023-02-15T08:21:51;6.60;99.90
18721;DHT22;9489;50.948;3.114;2023-02-15T08:24:20;6.50;99.90
18721;DHT22;9489;50.948;3.114;2023-02-15T08:26:46;6.50;99.90
18721;DHT22;9489;50.948;3.114;2023-02-15T08:29:18;6.50;99.90
18721;DHT22;9489;50.948;3.114;2023-02-15T08:31:44;6.40;99.90
18721;DHT22;9489;50.948;3.114;2023-02-15T08:34:13;6.30;99.90
18721;DHT22;9489;50.948;3.114;2023-02-15T08:36:39;6.40;99.90
18721;DHT22;9489;50.948;3.114;2023-02-15T08:39:06;6.50;99.90
18721;DHT22;9489;50.948;3.114;2023-02-15T08:41:34;6.60;99.90
18721;DHT22;9489;50.948;3.114;2023-02-15T08:44:01;6.90;99.90
18721;DHT22;9489;50.948;3.114;2023-02-15T08:46:31;7.20;99.90
18721;DHT22;9489;50.948;3.114;2023-02-15T08:48:57;7.40;99.90
18721;DHT22;9489;50.948;3.114;2023-02-15T08:51:27;7.60;99.90
18721;DHT22;9489;50.948;3.114;2023-02-15T08:53:56;7.90;99.90
18721;DHT22;9489;50.948;3.114;2023-02-15T08:56:24;7.90;95.60
18721;DHT22;9489;50.948;3.114;2023-02-15T08:58:50;8.20;30.40
18721;DHT22;9489;50.948;3.114;2023-02-15T09:01:20;8.50;1.00
18721;DHT22;9489;50.948;3.114;2023-02-15T09:03:49;8.80;1.00
18721;DHT22;9489;50.948;3.114;2023-02-15T09:06:16;9.00;1.00
18721;DHT22;9489;50.948;3.114;2023-02-15T09:08:42;9.20;1.00
18721;DHT22;9489;50.948;3.114;2023-02-15T09:11:19;9.60;1.00
18721;DHT22;9489;50.948;3.114;2023-02-15T09:14:00;9.70;1.00
18721;DHT22;9489;50.948;3.114;2023-02-15T09:16:28;10.00;1.00
18721;DHT22;9489;50.948;3.114;2023-02-15T09:18:55;10.30;1.00
18721;DHT22;9489;50.948;3.114;2023-02-15T09:21:23;10.30;1.00
18721;DHT22;9489;50.948;3.114;2023-02-15T09:23:51;10.20;1.00
18721;DHT22;9489;50.948;3.114;2023-02-15T09:26:20;10.30;1.00
18721;DHT22;9489;50.948;3.114;2023-02-15T09:28:46;10.60;1.00
18721;DHT22;9489;50.948;3.114;2023-02-15T09:31:18;10.40;1.00
18721;DHT22;9489;50.948;3.114;2023-02-15T09:33:46;10.70;1.00
18721;DHT22;9489;50.948;3.114;2023-02-15T09:36:21;11.10;1.00
18721;DHT22;9489;50.948;3.114;2023-02-15T09:38:55;11.40;1.00
18721;DHT22;9489;50.948;3.114;2023-02-15T09:49:40;12.30;1.00
18721;DHT22;9489;50.948;3.114;2023-02-15T09:52:24;12.00;1.00
18721;DHT22;9489;50.948;3.114;2023-02-15T09:55:09;12.40;1.00
18721;DHT22;9489;50.948;3.114;2023-02-15T09:57:50;12.40;99.90
18721;DHT22;9489;50.948;3.114;2023-02-15T10:11:42;12.80;99.90
18721;DHT22;9489;50.948;3.114;2023-02-15T10:14:46;13.00;99.90
18721;DHT22;9489;50.948;3.114;2023-02-15T10:17:31;13.40;99.90
18721;DHT22;9489;50.948;3.114;2023-02-15T10:25:31;14.20;1.00
18721;DHT22;9489;50.948;3.114;2023-02-15T10:28:06;14.40;1.00
18721;DHT22;9489;50.948;3.114;2023-02-15T10:30:46;14.80;99.90
18721;DHT22;9489;50.948;3.114;2023-02-15T10:44:24;16.00;99.90
18721;DHT22;9489;50.948;3.114;2023-02-15T10:49:50;16.40;1.00
18721;DHT22;9489;50.948;3.114;2023-02-15T10:52:29;16.40;1.00
18721;DHT22;9489;50.948;3.114;2023-02-15T10:55:22;16.30;1.00
18721;DHT22;9489;50.948;3.114;2023-02-15T10:58:23;16.00;90.00
18721;DHT22;9489;50.948;3.114;2023-02-15T11:01:18;16.20;1.00
18721;DHT22;9489;50.948;3.114;2023-02-15T11:04:02;15.80;1.00
18721;DHT22;9489;50.948;3.114;2023-02-15T11:06:31;15.70;99.90
18721;DHT22;9489;50.948;3.114;2023-02-15T11:09:02;15.10;1.00
18721;DHT22;9489;50.948;3.114;2023-02-15T11:11:34;15.30;1.00
18721;DHT22;9489;50.948;3.114;2023-02-15T11:14:17;15.70;1.00
18721;DHT22;9489;50.948;3.114;2023-02-15T11:16:50;16.10;99.90
18721;DHT22;9489;50.948;3.114;2023-02-15T11:19:26;16.10;30.20
18721;DHT22;9489;50.948;3.114;2023-02-15T11:21:57;16.40;1.00
18721;DHT22;9489;50.948;3.114;2023-02-15T11:24:26;16.60;99.90
18721;DHT22;9489;50.948;3.114;2023-02-15T11:27:05;16.50;1.00
18721;DHT22;9489;50.948;3.114;2023-02-15T11:30:00;16.80;1.00
18721;DHT22;9489;50.948;3.114;2023-02-15T11:32:43;17.20;99.90
18721;DHT22;9489;50.948;3.114;2023-02-15T11:35:26;17.50;99.90
18721;DHT22;9489;50.948;3.114;2023-02-15T11:40:54;16.60;99.90
18721;DHT22;9489;50.948;3.114;2023-02-15T11:46:02;16.50;99.90
18721;DHT22;9489;50.948;3.114;2023-02-15T11:48:30;16.30;99.90
18721;DHT22;9489;50.948;3.114;2023-02-15T11:50:58;16.10;99.90
18721;DHT22;9489;50.948;3.114;2023-02-15T11:53:26;15.90;99.90
18721;DHT22;9489;50.948;3.114;2023-02-15T11:55:54;15.30;90.40
18721;DHT22;9489;50.948;3.114;2023-02-15T12:03:52;15.40;99.90
18721;DHT22;9489;50.948;3.114;2023-02-15T12:06:35;15.70;1.00
18721;DHT22;9489;50.948;3.114;2023-02-15T12:12:19;16.60;99.90
18721;DHT22;9489;50.948;3.114;2023-02-15T12:14:50;17.80;99.90
18721;DHT22;9489;50.948;3.114;2023-02-15T12:17:16;18.40;99.90
18721;DHT22;9489;50.948;3.114;2023-02-15T12:19:43;19.10;99.90
18721;DHT22;9489;50.948;3.114;2023-02-15T12:22:25;19.50;99.90
18721;DHT22;9489;50.948;3.114;2023-02-15T12:24:55;20.00;99.90
18721;DHT22;9489;50.948;3.114;2023-02-15T12:27:22;20.40;99.90
18721;DHT22;9489;50.948;3.114;2023-02-15T12:29:52;20.60;99.90
18721;DHT22;9489;50.948;3.114;2023-02-15T12:32:31;20.70;99.90
18721;DHT22;9489;50.948;3.114;2023-02-15T12:35:26;20.40;99.90
18721;DHT22;9489;50.948;3.114;2023-02-15T12:40:28;20.80;99.90
18721;DHT22;9489;50.948;3.114;2023-02-15T12:42:54;20.40;99.90
18721;DHT22;9489;50.948;3.114;2023-02-15T12:45:32;20.30;99.90
18721;DHT22;9489;50.948;3.114;2023-02-15T12:48:18;21.00;99.90
18721;DHT22;9489;50.948;3.114;2023-02-15T12:50:46;21.10;99.90
18721;DHT22;9489;50.948;3.114;2023-02-15T12:53:34;20.80;99.90
18721;DHT22;9489;50.948;3.114;2023-02-15T12:56:05;20.40;99.90
18721;DHT22;9489;50.948;3.114;2023-02-15T12:58:33;20.00;99.90
18721;DHT22;9489;50.948;3.114;2023-02-15T13:03:29;19.80;99.90
18721;DHT22;9489;50.948;3.114;2023-02-15T13:05:56;19.70;99.90
18721;DHT22;9489;50.948;3.114;2023-02-15T13:08:33;19.80;99.90
18721;DHT22;9489;50.948;3.114;2023-02-15T13:11:03;19.80;99.90
18721;DHT22;9489;50.948;3.114;2023-02-15T13:13:32;19.80;99.90
18721;DHT22;9489;50.948;3.114;2023-02-15T13:16:05;19.80;99.90
18721;DHT22;9489;50.948;3.114;2023-02-15T13:18:42;20.10;1.00
18721;DHT22;9489;50.948;3.114;2023-02-15T13:21:18;20.10;1.00
18721;DHT22;9489;50.948;3.114;2023-02-15T13:23:52;19.90;1.00
18721;DHT22;9489;50.948;3.114;2023-02-15T13:26:21;19.10;1.00
18721;DHT22;9489;50.948;3.114;2023-02-15T13:28:52;18.30;1.00
18721;DHT22;9489;50.948;3.114;2023-02-15T13:31:22;18.30;99.90
18721;DHT22;9489;50.948;3.114;2023-02-15T13:33:51;18.40;99.90
18721;DHT22;9489;50.948;3.114;2023-02-15T13:36:34;18.50;99.90
18721;DHT22;9489;50.948;3.114;2023-02-15T13:39:27;18.20;1.00
18721;DHT22;9489;50.948;3.114;2023-02-15T14:05:42;16.10;1.00
18721;DHT22;9489;50.948;3.114;2023-02-15T14:11:21;15.30;1.00
18721;DHT22;9489;50.948;3.114;2023-02-15T14:14:00;15.10;1.00
18721;DHT22;9489;50.948;3.114;2023-02-15T14:19:57;14.60;99.90
18721;DHT22;9489;50.948;3.114;2023-02-15T14:27:47;13.90;99.90
18721;DHT22;9489;50.948;3.114;2023-02-15T14:30:20;13.80;99.90
18721;DHT22;9489;50.948;3.114;2023-02-15T14:32:49;13.70;1.00
18721;DHT22;9489;50.948;3.114;2023-02-15T14:35:18;13.70;1.00
18721;DHT22;9489;50.948;3.114;2023-02-15T14:41:02;13.30;1.00
18721;DHT22;9489;50.948;3.114;2023-02-15T14:43:44;13.30;1.00
18721;DHT22;9489;50.948;3.114;2023-02-15T14:49:13;13.20;1.00
18721;DHT22;9489;50.948;3.114;2023-02-15T14:56:47;13.00;1.00
18721;DHT22;9489;50.948;3.114;2023-02-15T15:02:24;12.80;1.00
18721;DHT22;9489;50.948;3.114;2023-02-15T15:07:51;12.80;1.00
18721;DHT22;9489;50.948;3.114;2023-02-15T15:12:49;12.80;1.00
18721;DHT22;9489;50.948;3.114;2023-02-15T15:18:06;12.70;1.00
18721;DHT22;9489;50.948;3.114;2023-02-15T15:20:49;12.80;1.00
18721;DHT22;9489;50.948;3.114;2023-02-15T15:31:18;13.20;1.00
18721;DHT22;9489;50.948;3.114;2023-02-15T15:36:52;13.20;1.00
18721;DHT22;9489;50.948;3.114;2023-02-15T15:42:13;13.50;1.00
18721;DHT22;9489;50.948;3.114;2023-02-15T15:47:54;14.10;99.90
18721;DHT22;9489;50.948;3.114;2023-02-15T15:50:23;14.10;99.90
18721;DHT22;9489;50.948;3.114;2023-02-15T15:52:57;14.10;99.90
18721;DHT22;9489;50.948;3.114;2023-02-15T15:55:26;14.60;99.90
18721;DHT22;9489;50.948;3.114;2023-02-15T15:57:57;14.60;99.90
18721;DHT22;9489;50.948;3.114;2023-02-15T16:03:28;14.50;22.70
18721;DHT22;9489;50.948;3.114;2023-02-15T16:05:55;14.40;1.00
18721;DHT22;9489;50.948;3.114;2023-02-15T16:08:34;14.70;1.00
18721;DHT22;9489;50.948;3.114;2023-02-15T16:11:12;15.20;1.00
18721;DHT22;9489;50.948;3.114;2023-02-15T16:13:43;15.10;1.00
18721;DHT22;9489;50.948;3.114;2023-02-15T16:16:11;15.50;1.00
18721;DHT22;9489;50.948;3.114;2023-02-15T16:18:38;15.60;99.90
18721;DHT22;9489;50.948;3.114;2023-02-15T16:21:16;15.20;99.90
18721;DHT22;9489;50.948;3.114;2023-02-15T16:28:51;15.30;99.90
18721;DHT22;9489;50.948;3.114;2023-02-15T16:31:18;14.70;1.00
18721;DHT22;9489;50.948;3.114;2023-02-15T16:33:44;14.10;1.00
18721;DHT22;9489;50.948;3.114;2023-02-15T16:36:25;13.80;29.00
18721;DHT22;9489;50.948;3.114;2023-02-15T16:41:30;13.10;99.90
18721;DHT22;9489;50.948;3.114;2023-02-15T16:43:58;12.90;1.00
18721;DHT22;9489;50.948;3.114;2023-02-15T16:46:31;12.70;1.00
18721;DHT22;9489;50.948;3.114;2023-02-15T16:49:00;12.70;1.00
18721;DHT22;9489;50.948;3.114;2023-02-15T16:51:28;12.50;1.00
18721;DHT22;9489;50.948;3.114;2023-02-15T16:53:57;12.30;1.00
18721;DHT22;9489;50.948;3.114;2023-02-15T16:56:29;12.20;1.00
18721;DHT22;9489;50.948;3.114;2023-02-15T16:58:56;12.00;1.00
18721;DHT22;9489;50.948;3.114;2023-02-15T17:01:26;12.00;1.00
18721;DHT22;9489;50.948;3.114;2023-02-15T17:04:23;11.90;1.00
18721;DHT22;9489;50.948;3.114;2023-02-15T17:07:16;11.70;1.00
18721;DHT22;9489;50.948;3.114;2023-02-15T17:10:00;11.70;1.00
18721;DHT22;9489;50.948;3.114;2023-02-15T17:12:45;11.60;1.00
18721;DHT22;9489;50.948;3.114;2023-02-15T17:18:05;11.50;1.00
18721;DHT22;9489;50.948;3.114;2023-02-15T17:20:32;11.40;1.00
18721;DHT22;9489;50.948;3.114;2023-02-15T17:22:59;11.20;1.00
18721;DHT22;9489;50.948;3.114;2023-02-15T17:25:37;11.10;1.00
18721;DHT22;9489;50.948;3.114;2023-02-15T17:28:03;11.10;1.00
18721;DHT22;9489;50.948;3.114;2023-02-15T17:30:34;11.00;1.00
18721;DHT22;9489;50.948;3.114;2023-02-15T17:33:04;10.90;1.00
18721;DHT22;9489;50.948;3.114;2023-02-15T17:35:43;10.80;1.00
18721;DHT22;9489;50.948;3.114;2023-02-15T17:40:40;10.60;1.00
18721;DHT22;9489;50.948;3.114;2023-02-15T17:43:05;10.50;1.00
18721;DHT22;9489;50.948;3.114;2023-02-15T17:45:33;10.50;1.00
18721;DHT22;9489;50.948;3.114;2023-02-15T17:48:03;10.40;1.00
18721;DHT22;9489;50.948;3.114;2023-02-15T17:50:29;10.30;1.00
18721;DHT22;9489;50.948;3.114;2023-02-15T17:52:56;10.20;1.00
18721;DHT22;9489;50.948;3.114;2023-02-15T17:55:23;10.20;1.00
18721;DHT22;9489;50.948;3.114;2023-02-15T17:58:14;10.10;1.00
18721;DHT22;9489;50.948;3.114;2023-02-15T18:00:52;10.10;1.00
18721;DHT22;9489;50.948;3.114;2023-02-15T18:03:44;10.00;1.00
18721;DHT22;9489;50.948;3.114;2023-02-15T18:06:30;10.10;1.00
18721;DHT22;9489;50.948;3.114;2023-02-15T18:09:19;10.00;1.00
18721;DHT22;9489;50.948;3.114;2023-02-15T18:14:50;9.90;1.00
18721;DHT22;9489;50.948;3.114;2023-02-15T18:17:17;9.90;1.00
18721;DHT22;9489;50.948;3.114;2023-02-15T18:19:45;9.80;1.00
18721;DHT22;9489;50.948;3.114;2023-02-15T18:22:16;9.80;1.00
18721;DHT22;9489;50.948;3.114;2023-02-15T18:24:43;9.70;1.00
18721;DHT22;9489;50.948;3.114;2023-02-15T18:27:11;9.60;1.00
18721;DHT22;9489;50.948;3.114;2023-02-15T18:29:37;9.50;8.90
18721;DHT22;9489;50.948;3.114;2023-02-15T18:32:06;9.50;13.50
18721;DHT22;9489;50.948;3.114;2023-02-15T18:34:36;9.30;24.90
18721;DHT22;9489;50.948;3.114;2023-02-15T18:37:05;9.30;30.60
18721;DHT22;9489;50.948;3.114;2023-02-15T18:39:35;9.20;41.50
18721;DHT22;9489;50.948;3.114;2023-02-15T18:42:03;9.10;41.00
18721;DHT22;9489;50.948;3.114;2023-02-15T18:44:29;9.10;43.20
18721;DHT22;9489;50.948;3.114;2023-02-15T18:46:55;9.10;44.20
18721;DHT22;9489;50.948;3.114;2023-02-15T18:49:20;9.20;43.80
18721;DHT22;9489;50.948;3.114;2023-02-15T18:51:46;9.10;42.30
18721;DHT22;9489;50.948;3.114;2023-02-15T18:54:20;9.20;40.90
18721;DHT22;9489;50.948;3.114;2023-02-15T18:56:54;9.10;44.50
18721;DHT22;9489;50.948;3.114;2023-02-15T18:59:21;9.00;50.40
18721;DHT22;9489;50.948;3.114;2023-02-15T19:01:48;8.90;56.50
18721;DHT22;9489;50.948;3.114;2023-02-15T19:04:13;8.80;64.00
18721;DHT22;9489;50.948;3.114;2023-02-15T19:06:43;8.80;65.40
18721;DHT22;9489;50.948;3.114;2023-02-15T19:09:16;8.80;72.40
18721;DHT22;9489;50.948;3.114;2023-02-15T19:11:49;8.80;72.00
18721;DHT22;9489;50.948;3.114;2023-02-15T19:14:30;8.80;78.20
18721;DHT22;9489;50.948;3.114;2023-02-15T19:16:58;8.80;77.20
18721;DHT22;9489;50.948;3.114;2023-02-15T19:19:25;8.80;78.30
18721;DHT22;9489;50.948;3.114;2023-02-15T19:21:51;8.80;80.10
18721;DHT22;9489;50.948;3.114;2023-02-15T19:24:20;8.80;81.60
18721;DHT22;9489;50.948;3.114;2023-02-15T19:26:47;8.80;83.70
18721;DHT22;9489;50.948;3.114;2023-02-15T19:29:15;8.80;85.80
18721;DHT22;9489;50.948;3.114;2023-02-15T19:31:41;8.80;89.60
18721;DHT22;9489;50.948;3.114;2023-02-15T19:34:15;8.70;91.20
18721;DHT22;9489;50.948;3.114;2023-02-15T19:36:52;8.70;92.90